Time;durP1;ratioP1;P1;durP2;ratioP2;P2;SDS_P1;SDS_P2;PMS_P1;PMS_P2;Temp;Humidity;BMP_temperature;BMP_pressure;BME280_temperature;BME280_humidity;BME280_pressure;Samples;Min_cycle;Max_cycle;Signal;HPM_P1;HPM_P2
2022/11/03 00:00:56;;;;;;;9.20;2.58;;;11.00;99.90;;;;;;5115151;28;20050;-86
2022/11/03 00:03:21;;;;;;;8.35;2.40;;;11.00;99.90;;;;;;5116040;28;20046;-85
2022/11/03 00:06:05;;;;;;;10.32;2.63;;;11.00;99.90;;;;;;5116016;28;20046;-86
2022/11/03 00:08:33;;;;;;;14.23;2.60;;;11.00;99.90;;;;;;5116218;28;20135;-85
2022/11/03 00:11:14;;;;;;;9.93;2.65;;;11.10;99.90;;;;;;5115826;28;20045;-85
2022/11/03 00:13:43;;;;;;;16.15;2.80;;;11.10;99.90;;;;;;5115614;28;20625;-85
2022/11/03 00:16:10;;;;;;;8.27;2.42;;;11.20;99.90;;;;;;5114850;28;20035;-85
2022/11/03 00:18:37;;;;;;;11.75;2.33;;;11.20;99.90;;;;;;5114889;28;20395;-85
2022/11/03 00:21:08;;;;;;;10.23;2.95;;;11.20;99.90;;;;;;5114722;28;20047;-85
2022/11/03 00:23:37;;;;;;;10.48;2.58;;;11.20;99.90;;;;;;5097810;28;20074;-85
2022/11/03 00:26:13;;;;;;;11.85;2.42;;;11.30;99.90;;;;;;5115426;28;20083;-85
2022/11/03 00:28:40;;;;;;;16.13;3.03;;;11.30;99.90;;;;;;5115713;28;20048;-85
2022/11/03 00:31:09;;;;;;;10.20;2.90;;;11.40;99.90;;;;;;5114352;28;20051;-85
2022/11/03 00:33:35;;;;;;;9.02;2.38;;;11.80;99.90;;;;;;5098035;28;20084;-85
2022/11/03 00:36:01;;;;;;;8.85;2.70;;;11.20;99.90;;;;;;5115292;27;20040;-85
2022/11/03 00:38:28;;;;;;;12.77;3.10;;;11.20;99.90;;;;;;5115255;28;20052;-85
2022/11/03 00:40:58;;;;;;;10.98;3.00;;;11.30;99.90;;;;;;5097065;28;20043;-85
2022/11/03 00:43:25;;;;;;;8.05;2.72;;;11.20;99.90;;;;;;5114495;28;20498;-85
2022/11/03 00:45:53;;;;;;;;;;;11.20;99.90;;;;;;5115613;28;20054;-85
2022/11/03 00:48:28;;;;;;;6.97;2.65;;;11.20;99.90;;;;;;5115311;28;19926;-85
2022/11/03 00:50:59;;;;;;;8.38;2.50;;;11.20;99.90;;;;;;5115147;28;20058;-85
2022/11/03 00:53:24;;;;;;;13.50;2.70;;;11.20;99.90;;;;;;5114054;28;20518;-85
2022/11/03 00:55:50;;;;;;;10.68;2.53;;;11.60;99.90;;;;;;5115327;28;20082;-85
2022/11/03 00:58:16;;;;;;;6.85;2.42;;;11.10;99.90;;;;;;5114913;28;20126;-85
2022/11/03 01:00:41;;;;;;;8.63;2.55;;;11.10;99.90;;;;;;5114044;28;20040;-85
2022/11/03 01:03:07;;;;;;;7.57;2.17;;;11.00;99.90;;;;;;5114985;28;20475;-85
2022/11/03 01:08:16;;;;;;;11.35;2.50;;;11.30;99.90;;;;;;5114519;28;20087;-85
2022/11/03 01:13:27;;;;;;;15.00;2.90;;;11.00;99.90;;;;;;5113999;28;20131;-86
2022/11/03 01:15:57;;;;;;;9.90;2.57;;;11.10;99.90;;;;;;5113737;28;20035;-85
2022/11/03 01:18:23;;;;;;;5.95;2.22;;;11.00;99.90;;;;;;5114674;28;20055;-85
2022/11/03 01:20:55;;;;;;;6.20;2.23;;;11.00;99.90;;;;;;5114335;28;20391;-85
2022/11/03 01:23:24;;;;;;;9.70;2.80;;;11.00;99.90;;;;;;5113294;28;20054;-85
2022/11/03 01:25:50;;;;;;;8.93;2.60;;;11.20;99.90;;;;;;5113607;28;20079;-85
2022/11/03 01:28:15;;;;;;;10.55;2.83;;;10.90;99.90;;;;;;5096490;28;20090;-85
2022/11/03 01:30:41;;;;;;;9.15;2.45;;;11.00;99.90;;;;;;5113571;28;20051;-85
2022/11/03 01:33:06;;;;;;;11.73;2.83;;;10.90;99.90;;;;;;5113394;28;20369;-85
2022/11/03 01:35:32;;;;;;;8.18;2.40;;;10.90;99.90;;;;;;5113348;28;20092;-85
2022/11/03 01:37:57;;;;;;;9.30;2.50;;;10.90;99.90;;;;;;5114356;28;20537;-85
2022/11/03 01:40:23;;;;;;;10.52;2.40;;;10.90;99.90;;;;;;5113353;28;20043;-85
2022/11/03 01:42:49;;;;;;;10.90;3.20;;;10.90;99.90;;;;;;5114242;28;20051;-85
2022/11/03 01:45:15;;;;;;;10.70;2.90;;;10.90;99.90;;;;;;5113997;28;20035;-85
2022/11/03 01:47:42;;;;;;;14.10;2.47;;;10.90;99.90;;;;;;5114349;28;20054;-85
2022/11/03 01:50:16;;;;;;;12.48;2.60;;;10.90;99.90;;;;;;5114328;28;20118;-86
2022/11/03 01:52:53;;;;;;;15.90;3.25;;;10.90;99.90;;;;;;5096525;28;20391;-85
2022/11/03 01:55:23;;;;;;;9.07;2.47;;;10.90;99.90;;;;;;5113160;28;20521;-85
2022/11/03 01:57:58;;;;;;;9.80;2.53;;;10.90;99.90;;;;;;5096225;28;20039;-86
2022/11/03 02:00:23;;;;;;;9.95;2.58;;;10.90;99.90;;;;;;5096533;28;20059;-85
2022/11/03 02:02:50;;;;;;;9.88;2.83;;;10.90;99.90;;;;;;5114155;28;20475;-85
2022/11/03 02:05:17;;;;;;;8.07;2.28;;;11.00;99.90;;;;;;5096159;28;20130;-85
2022/11/03 02:07:52;;;;;;;9.77;2.92;;;10.90;99.90;;;;;;5114092;28;20096;-85
2022/11/03 02:10:18;;;;;;;8.65;2.58;;;10.90;99.90;;;;;;5113030;28;20047;-85
2022/11/03 02:12:43;;;;;;;11.10;2.67;;;11.50;99.90;;;;;;5113980;28;20047;-85
2022/11/03 02:15:13;;;;;;;13.18;2.95;;;10.90;99.90;;;;;;5114135;28;20123;-85
2022/11/03 02:17:41;;;;;;;12.27;2.50;;;11.00;99.90;;;;;;5113944;28;20043;-85
2022/11/03 02:20:16;;;;;;;7.32;2.28;;;10.90;99.90;;;;;;5113939;28;20116;-85
2022/11/03 02:23:05;;;;;;;11.77;2.90;;;10.80;99.90;;;;;;5112655;28;20048;-85
2022/11/03 02:25:46;;;;;;;8.52;2.97;;;10.80;99.90;;;;;;5112901;28;20044;-85
2022/11/03 02:28:16;;;;;;;11.50;3.28;;;10.80;99.90;;;;;;5113864;28;20060;-85
2022/11/03 02:30:57;;;;;;;8.38;2.95;;;10.80;99.90;;;;;;5095970;28;20066;-85
2022/11/03 02:33:41;;;;;;;12.43;2.58;;;10.80;99.90;;;;;;5113805;28;20050;-85
2022/11/03 02:36:10;;;;;;;9.20;2.83;;;10.80;99.90;;;;;;5114204;28;20051;-85
2022/11/03 02:38:45;;;;;;;9.63;2.60;;;10.70;99.90;;;;;;5112881;28;20130;-85
2022/11/03 02:41:13;;;;;;;10.40;2.80;;;10.80;99.90;;;;;;5112828;28;20209;-85
2022/11/03 02:43:40;;;;;;;11.25;3.25;;;10.70;99.90;;;;;;5113732;28;20043;-85
2022/11/03 02:46:06;;;;;;;11.98;2.85;;;11.40;99.90;;;;;;5113746;28;20036;-86
2022/11/03 02:48:32;;;;;;;12.35;2.80;;;10.70;99.90;;;;;;5112803;28;20379;-85
2022/11/03 02:50:57;;;;;;;8.32;2.50;;;10.70;99.90;;;;;;5113772;28;20035;-86
2022/11/03 02:53:25;;;;;;;8.52;2.50;;;10.60;99.90;;;;;;5113399;28;20081;-85
2022/11/03 02:56:04;;;;;;;11.75;2.92;;;10.70;99.90;;;;;;5112761;28;20059;-85
2022/11/03 02:58:56;;;;;;;14.13;2.92;;;10.70;99.90;;;;;;5112607;28;20509;-85
2022/11/03 03:01:45;;;;;;;7.70;2.42;;;10.70;99.90;;;;;;5112786;28;20058;-86
2022/11/03 03:04:20;;;;;;;9.60;2.83;;;10.70;99.90;;;;;;5115345;28;20130;-86
2022/11/03 03:06:53;;;;;;;10.32;3.00;;;10.70;99.90;;;;;;5117179;28;20050;-85
2022/11/03 03:09:26;;;;;;;9.80;3.13;;;10.70;99.90;;;;;;5116972;28;20061;-85
2022/11/03 03:11:54;;;;;;;12.95;3.22;;;10.60;99.90;;;;;;5117125;28;20040;-86
2022/11/03 03:14:23;;;;;;;17.80;2.92;;;10.70;99.90;;;;;;5116733;28;20044;-85
2022/11/03 03:16:59;;;;;;;14.10;3.35;;;10.60;99.90;;;;;;5115739;28;20036;-85
2022/11/03 03:19:49;;;;;;;9.13;2.67;;;10.70;99.90;;;;;;5099036;28;20087;-85
2022/11/03 03:22:30;;;;;;;11.07;2.65;;;10.60;99.90;;;;;;5117361;28;20383;-86
2022/11/03 03:25:13;;;;;;;12.77;2.80;;;10.60;99.90;;;;;;5116268;28;20055;-85
2022/11/03 03:27:44;;;;;;;8.65;2.90;;;10.60;99.90;;;;;;5115791;28;20130;-85
2022/11/03 03:30:11;;;;;;;12.73;2.88;;;10.70;99.90;;;;;;5116217;28;20067;-85
2022/11/03 03:32:42;;;;;;;11.68;2.65;;;10.70;99.90;;;;;;5116294;28;20048;-86
2022/11/03 03:35:11;;;;;;;9.10;2.50;;;10.80;99.90;;;;;;5116305;28;20079;-86
2022/11/03 03:37:40;;;;;;;10.40;2.78;;;10.90;99.90;;;;;;5115435;28;20036;-85
2022/11/03 03:40:10;;;;;;;12.88;2.97;;;10.80;99.90;;;;;;5115457;28;20051;-85
2022/11/03 03:42:37;;;;;;;11.10;3.03;;;10.80;99.90;;;;;;5115573;28;20097;-85
2022/11/03 03:45:06;;;;;;;7.93;2.80;;;10.80;99.90;;;;;;5116610;28;20047;-85
2022/11/03 03:47:33;;;;;;;10.95;3.03;;;10.80;99.90;;;;;;5115139;28;20053;-85
2022/11/03 03:50:00;;;;;;;9.02;2.92;;;10.80;99.90;;;;;;5116556;28;20398;-85
2022/11/03 03:52:27;;;;;;;7.32;2.75;;;10.80;99.90;;;;;;5115624;28;20044;-85
2022/11/03 03:54:54;;;;;;;12.77;2.92;;;11.20;99.90;;;;;;5115296;28;20054;-85
2022/11/03 03:57:22;;;;;;;16.42;3.10;;;10.80;99.90;;;;;;5114538;28;20112;-85
2022/11/03 03:59:48;;;;;;;10.55;3.22;;;10.80;99.90;;;;;;5115138;28;20048;-85
2022/11/03 04:02:14;;;;;;;10.85;2.70;;;11.20;99.90;;;;;;5115855;28;20451;-86
2022/11/03 04:04:40;;;;;;;9.60;3.13;;;10.80;99.90;;;;;;5114673;28;20047;-85
2022/11/03 04:09:51;;;;;;;10.25;2.70;;;10.80;99.90;;;;;;5115693;28;20135;-85
2022/11/03 04:23:16;;;;;;;10.75;2.90;;;10.60;99.90;;;;;;5115492;28;20499;-85
2022/11/03 04:25:47;;;;;;;7.68;2.83;;;10.60;99.90;;;;;;5115467;28;20552;-85
2022/11/03 04:28:14;;;;;;;10.13;2.95;;;11.00;99.90;;;;;;5115349;28;20065;-85
2022/11/03 04:30:40;;;;;;;11.48;3.08;;;10.50;99.90;;;;;;5115504;28;20055;-85
2022/11/03 04:33:18;;;;;;;11.98;2.50;;;10.50;99.90;;;;;;5115456;28;20044;-85
2022/11/03 04:35:45;;;;;;;12.57;2.67;;;10.50;99.90;;;;;;5115331;28;20039;-85
2022/11/03 04:38:13;;;;;;;8.27;2.80;;;10.50;99.90;;;;;;5115317;28;20054;-85
2022/11/03 04:40:44;;;;;;;15.10;3.08;;;10.50;99.90;;;;;;5115149;28;20051;-85
2022/11/03 04:43:13;;;;;;;11.32;3.28;;;10.50;99.90;;;;;;5114135;28;20039;-86
2022/11/03 04:45:39;;;;;;;7.10;2.70;;;10.50;99.90;;;;;;5115204;28;20498;-85
2022/11/03 04:48:14;;;;;;;15.50;3.05;;;10.50;99.90;;;;;;5115121;28;20050;-85
2022/11/03 04:50:41;;;;;;;13.45;3.30;;;10.50;99.90;;;;;;5114980;28;20043;-86
2022/11/03 04:53:17;;;;;;;13.98;3.00;;;10.50;99.90;;;;;;5114421;28;20618;-85
2022/11/03 04:55:45;;;;;;;7.47;2.58;;;10.50;99.90;;;;;;5113648;28;20043;-85
2022/11/03 04:58:27;;;;;;;9.20;2.70;;;10.40;99.90;;;;;;5080175;28;20062;-86
2022/11/03 05:00:56;;;;;;;10.52;3.00;;;10.40;99.90;;;;;;5114085;28;20050;-85
2022/11/03 05:03:29;;;;;;;9.77;3.03;;;10.40;99.90;;;;;;5114755;28;20391;-85
2022/11/03 05:05:56;;;;;;;8.30;2.65;;;11.00;99.90;;;;;;5114999;27;20085;-86
2022/11/03 05:08:21;;;;;;;9.23;2.83;;;10.40;99.90;;;;;;5114703;28;20055;-85
2022/11/03 05:10:48;;;;;;;7.68;2.83;;;10.40;99.90;;;;;;5113750;28;20039;-86
2022/11/03 05:13:23;;;;;;;6.68;2.50;;;10.40;99.90;;;;;;5096862;28;20494;-85
2022/11/03 05:15:51;;;;;;;9.38;2.80;;;10.50;99.90;;;;;;5114294;28;20046;-85
2022/11/03 05:18:29;;;;;;;8.20;2.85;;;10.50;99.90;;;;;;5114612;28;20123;-85
2022/11/03 05:20:59;;;;;;;12.73;3.00;;;10.50;99.90;;;;;;5096687;28;20172;-85
2022/11/03 05:23:26;;;;;;;8.30;2.47;;;10.50;99.90;;;;;;5096568;28;20055;-85
2022/11/03 05:25:54;;;;;;;10.00;2.95;;;10.50;99.90;;;;;;5112759;28;20039;-85
2022/11/03 05:28:22;;;;;;;12.13;2.85;;;10.50;99.90;;;;;;5113449;28;20426;-85
2022/11/03 05:30:48;;;;;;;10.25;3.00;;;10.50;99.90;;;;;;5096751;28;20077;-86
2022/11/03 05:33:19;;;;;;;13.70;3.47;;;10.50;99.90;;;;;;5113473;28;20047;-85
2022/11/03 05:35:45;;;;;;;16.42;2.97;;;10.50;99.90;;;;;;5096284;28;20387;-85
2022/11/03 05:38:15;;;;;;;5.10;2.50;;;10.40;99.90;;;;;;5113424;28;20051;-85
2022/11/03 05:40:41;;;;;;;6.88;3.05;;;10.40;99.90;;;;;;5113217;28;20499;-85
2022/11/03 05:43:11;;;;;;;8.88;2.70;;;10.40;99.90;;;;;;5114625;28;20421;-85
2022/11/03 05:45:37;;;;;;;12.88;3.08;;;10.50;99.90;;;;;;5114196;28;20035;-85
2022/11/03 05:48:12;;;;;;;14.02;3.00;;;10.50;99.90;;;;;;5113059;28;20096;-85
2022/11/03 05:50:40;;;;;;;9.38;3.08;;;10.60;99.90;;;;;;5114682;28;20403;-85
2022/11/03 05:53:25;;;;;;;9.35;2.80;;;10.50;99.90;;;;;;5114387;28;20391;-85
2022/11/03 05:55:52;;;;;;;11.13;3.10;;;10.60;99.90;;;;;;5113212;28;20085;-85
2022/11/03 05:58:34;;;;;;;8.43;2.90;;;11.00;99.90;;;;;;5113221;28;20384;-86
2022/11/03 06:01:03;;;;;;;6.22;2.67;;;10.60;99.90;;;;;;5113388;28;20048;-85
2022/11/03 06:03:34;;;;;;;9.13;2.58;;;10.60;99.90;;;;;;5114030;28;20056;-85
2022/11/03 06:06:01;;;;;;;8.52;2.97;;;10.70;99.90;;;;;;5114412;28;20088;-85
2022/11/03 06:08:34;;;;;;;10.32;2.88;;;10.70;99.90;;;;;;5114090;28;20054;-85
2022/11/03 06:11:01;;;;;;;13.43;3.15;;;10.80;99.90;;;;;;5112855;28;20059;-85
2022/11/03 06:13:32;;;;;;;6.10;2.83;;;10.70;99.90;;;;;;5113903;28;20051;-85
2022/11/03 06:16:35;;;;;;;13.45;3.08;;;10.70;99.90;;;;;;5113973;28;20043;-85
2022/11/03 06:19:43;;;;;;;9.57;2.95;;;10.70;99.90;;;;;;5113122;28;20047;-85
2022/11/03 06:22:24;;;;;;;9.27;2.90;;;10.70;99.90;;;;;;5091125;28;20052;-85
2022/11/03 06:24:54;;;;;;;10.75;2.83;;;11.00;99.90;;;;;;5113957;28;20141;-86
2022/11/03 06:27:22;;;;;;;14.00;3.25;;;10.70;99.90;;;;;;5112754;28;20047;-86
2022/11/03 06:30:23;;;;;;;8.70;2.97;;;11.60;99.90;;;;;;5112220;28;20480;-85
2022/11/03 06:32:49;;;;;;;13.93;3.38;;;10.60;99.90;;;;;;5105345;28;20108;-86
2022/11/03 06:35:14;;;;;;;9.75;3.28;;;10.60;99.90;;;;;;5113818;28;20471;-85
2022/11/03 06:37:41;;;;;;;9.55;3.05;;;10.70;99.90;;;;;;5097151;28;20051;-85
2022/11/03 06:40:10;;;;;;;8.73;2.83;;;10.80;99.90;;;;;;5116699;28;20047;-87
2022/11/03 06:42:38;;;;;;;10.52;3.33;;;10.70;99.90;;;;;;5117021;28;20089;-85
2022/11/03 06:45:25;;;;;;;11.93;3.00;;;10.60;99.90;;;;;;5118002;28;20055;-86
2022/11/03 06:47:53;;;;;;;10.88;3.28;;;10.60;99.90;;;;;;5116461;28;20285;-84
2022/11/03 06:50:24;;;;;;;9.63;2.83;;;10.70;99.90;;;;;;5116331;28;20039;-82
2022/11/03 06:52:51;;;;;;;8.20;3.15;;;10.70;99.90;;;;;;5117593;28;20086;-85
2022/11/03 06:55:33;;;;;;;10.43;2.95;;;10.70;99.90;;;;;;5117338;28;20044;-84
2022/11/03 06:58:13;;;;;;;11.90;2.92;;;10.70;99.90;;;;;;5117763;28;20058;-85
2022/11/03 07:00:40;;;;;;;10.02;2.80;;;10.60;99.90;;;;;;5116086;28;20132;-86
2022/11/03 07:03:36;;;;;;;9.00;2.72;;;10.70;99.90;;;;;;5116302;28;20050;-84
2022/11/03 07:06:16;;;;;;;10.45;3.15;;;10.70;99.90;;;;;;5117332;28;20079;-84
2022/11/03 07:08:49;;;;;;;9.05;2.60;;;10.70;99.90;;;;;;5117127;27;20051;-82
2022/11/03 07:11:18;;;;;;;9.27;2.85;;;10.70;99.90;;;;;;5098852;28;20055;-80
2022/11/03 07:13:48;;;;;;;11.05;2.83;;;10.60;99.90;;;;;;5116925;28;20052;-80
2022/11/03 07:16:17;;;;;;;9.38;2.90;;;10.60;99.90;;;;;;5117150;28;20043;-81
2022/11/03 07:18:43;;;;;;;11.50;3.13;;;10.70;99.90;;;;;;5116860;28;20046;-81
2022/11/03 07:21:38;;;;;;;14.30;2.63;;;10.70;99.90;;;;;;5116674;28;20425;-83
2022/11/03 07:24:17;;;;;;;11.73;3.20;;;10.70;99.90;;;;;;5116059;28;20047;-85
2022/11/03 07:26:43;;;;;;;6.95;3.10;;;10.70;99.90;;;;;;5115657;28;20044;-84
2022/11/03 07:29:23;;;;;;;11.48;3.10;;;10.70;99.90;;;;;;5098558;28;20570;-82
2022/11/03 07:31:51;;;;;;;7.82;3.20;;;10.80;99.90;;;;;;5116741;28;20498;-82
2022/11/03 07:34:23;;;;;;;10.40;2.75;;;10.80;99.90;;;;;;5116607;28;20043;-82
2022/11/03 07:36:51;;;;;;;11.40;2.80;;;10.70;99.90;;;;;;5116577;28;20406;-85
2022/11/03 07:39:19;;;;;;;9.63;3.03;;;10.90;99.90;;;;;;5115463;28;20502;-83
2022/11/03 07:41:46;;;;;;;10.68;3.00;;;10.70;99.90;;;;;;5116834;28;20051;-83
2022/11/03 07:44:19;;;;;;;12.98;3.08;;;10.90;99.90;;;;;;5116507;28;20050;-85
2022/11/03 07:46:46;;;;;;;10.90;2.90;;;11.10;99.90;;;;;;5115247;28;20083;-86
2022/11/03 07:49:26;;;;;;;11.73;2.90;;;10.90;99.90;;;;;;5115422;28;20044;-83
2022/11/03 07:51:53;;;;;;;10.13;2.45;;;11.00;99.90;;;;;;5116459;28;20104;-81
2022/11/03 07:54:31;;;;;;;8.15;3.13;;;11.10;99.90;;;;;;5116249;28;20036;-82
2022/11/03 07:57:04;;;;;;;10.27;2.90;;;11.00;99.90;;;;;;5116256;28;20039;-87
2022/11/03 07:59:34;;;;;;;10.77;3.20;;;11.00;99.90;;;;;;5115475;28;20044;-80
2022/11/03 08:02:01;;;;;;;10.95;3.90;;;11.00;99.90;;;;;;5098274;28;20416;-82
2022/11/03 08:04:31;;;;;;;8.98;2.47;;;11.10;99.90;;;;;;5116158;28;20040;-81
2022/11/03 08:06:57;;;;;;;10.32;2.70;;;10.90;99.90;;;;;;5116805;28;20054;-81
2022/11/03 08:09:22;;;;;;;8.43;3.35;;;11.10;99.90;;;;;;5116028;28;20047;-82
2022/11/03 08:11:49;;;;;;;10.07;3.35;;;11.10;99.90;;;;;;5115947;28;20039;-83
2022/11/03 08:14:14;;;;;;;9.97;2.77;;;11.10;99.90;;;;;;5116057;27;20407;-85
2022/11/03 08:16:40;;;;;;;9.85;3.05;;;11.10;99.90;;;;;;5135708;27;20299;-81
2022/11/03 08:19:06;;;;;;;11.32;3.08;;;11.20;99.90;;;;;;5135011;27;20044;-80
2022/11/03 08:21:32;;;;;;;11.70;3.03;;;11.20;99.90;;;;;;5135910;27;20070;-74
2022/11/03 08:23:58;;;;;;;9.65;2.95;;;11.20;99.90;;;;;;5135939;27;20760;-82
2022/11/03 08:26:23;;;;;;;10.73;3.28;;;11.30;99.90;;;;;;5136045;27;20043;-82
2022/11/03 08:28:49;;;;;;;13.20;3.33;;;11.30;99.90;;;;;;5135954;27;20047;-79
2022/11/03 08:31:15;;;;;;;15.18;3.53;;;11.90;99.90;;;;;;5136089;27;20062;-82
2022/11/03 08:33:41;;;;;;;11.63;3.43;;;11.40;99.90;;;;;;5135713;27;20051;-82
2022/11/03 08:36:09;;;;;;;7.50;3.45;;;11.50;99.90;;;;;;5135526;27;20038;-81
2022/11/03 08:38:35;;;;;;;8.57;3.20;;;11.60;99.90;;;;;;5134645;27;20126;-85
2022/11/03 08:41:01;;;;;;;9.35;2.72;;;11.70;99.90;;;;;;5136396;27;20134;-81
2022/11/03 08:43:27;;;;;;;12.07;2.90;;;11.80;99.90;;;;;;5135790;27;20050;-79
2022/11/03 08:45:53;;;;;;;12.85;3.08;;;11.80;99.90;;;;;;5135584;27;20069;-80
2022/11/03 08:48:26;;;;;;;14.07;4.35;;;11.90;99.90;;;;;;5135733;27;20039;-82
2022/11/03 08:50:53;;;;;;;8.65;2.65;;;12.00;99.90;;;;;;5134243;27;20064;-80
2022/11/03 08:53:19;;;;;;;10.85;3.20;;;12.10;99.90;;;;;;5135358;27;20035;-82
2022/11/03 08:55:45;;;;;;;10.05;3.13;;;12.10;99.90;;;;;;5122976;27;20036;-83
2022/11/03 08:58:11;;;;;;;8.15;2.40;;;12.20;99.90;;;;;;5121066;27;20413;-80
2022/11/03 09:00:37;;;;;;;7.93;2.70;;;12.20;99.90;;;;;;5114799;28;20050;-79
2022/11/03 09:03:03;;;;;;;14.73;3.15;;;12.30;99.90;;;;;;5115044;27;20503;-80
2022/11/03 09:05:28;;;;;;;10.88;2.75;;;12.30;99.90;;;;;;5116610;27;20040;-77
2022/11/03 09:07:54;;;;;;;13.20;3.05;;;12.50;99.90;;;;;;5114429;28;20383;-77
2022/11/03 09:10:20;;;;;;;9.98;3.25;;;12.40;99.90;;;;;;5114580;28;20040;-77
2022/11/03 09:12:45;;;;;;;12.18;2.97;;;12.50;99.90;;;;;;5114293;28;20075;-78
2022/11/03 09:15:11;;;;;;;15.35;3.20;;;12.50;99.90;;;;;;5114015;28;20051;-78
2022/11/03 09:17:37;;;;;;;12.63;2.78;;;12.50;99.90;;;;;;5114329;28;20130;-73
2022/11/03 09:20:04;;;;;;;12.18;3.15;;;12.60;99.90;;;;;;5114529;28;20075;-77
2022/11/03 09:22:30;;;;;;;8.65;2.70;;;12.60;99.90;;;;;;5114327;28;20496;-77
2022/11/03 09:24:56;;;;;;;7.32;3.35;;;13.00;99.90;;;;;;5113478;28;20086;-76
2022/11/03 09:27:21;;;;;;;10.57;3.28;;;12.70;99.90;;;;;;5114028;28;20039;-76
2022/11/03 09:29:47;;;;;;;9.77;2.72;;;12.70;99.90;;;;;;5114293;28;20052;-79
2022/11/03 09:32:13;;;;;;;9.98;3.08;;;12.80;99.90;;;;;;5114229;28;20051;-79
2022/11/03 09:34:38;;;;;;;11.15;2.90;;;12.80;99.90;;;;;;5112903;28;20040;-73
2022/11/03 09:37:04;;;;;;;8.25;2.78;;;13.00;99.90;;;;;;5114305;28;20078;-72
2022/11/03 09:39:29;;;;;;;10.43;3.45;;;13.00;99.90;;;;;;5114198;28;20062;-71
2022/11/03 09:41:56;;;;;;;12.60;3.28;;;13.10;99.90;;;;;;5114128;28;20047;-72
2022/11/03 09:44:23;;;;;;;9.48;2.33;;;13.30;99.90;;;;;;5114189;28;20043;-73
2022/11/03 09:46:50;;;;;;;11.05;3.25;;;13.40;99.90;;;;;;5113908;28;20044;-72
2022/11/03 09:49:18;;;;;;;9.05;2.50;;;13.50;99.90;;;;;;5114129;28;20387;-71
2022/11/03 09:51:44;;;;;;;7.72;2.45;;;13.90;99.90;;;;;;5113891;28;20050;-73
2022/11/03 09:54:14;;;;;;;14.10;3.07;;;13.70;99.90;;;;;;5113821;28;20051;-72
2022/11/03 09:56:41;;;;;;;11.00;2.92;;;13.70;99.90;;;;;;5113822;28;20050;-74
2022/11/03 09:59:14;;;;;;;13.93;2.80;;;13.80;99.90;;;;;;5113960;28;20437;-74
2022/11/03 10:01:41;;;;;;;8.05;2.80;;;13.90;99.90;;;;;;5113837;28;20047;-73
2022/11/03 10:04:09;;;;;;;12.93;2.92;;;14.00;99.90;;;;;;5113738;28;20121;-72
2022/11/03 10:06:34;;;;;;;11.68;2.80;;;14.00;99.90;;;;;;5113910;28;20035;-73
2022/11/03 10:09:00;;;;;;;9.80;2.40;;;14.10;99.90;;;;;;5129578;28;20164;-74
2022/11/03 10:11:26;;;;;;;13.80;2.80;;;14.50;99.90;;;;;;5134256;28;20047;-73
2022/11/03 10:13:55;;;;;;;5.47;2.50;;;14.20;99.90;;;;;;5136022;27;20039;-81
2022/11/03 10:16:23;;;;;;;13.02;3.38;;;14.80;99.90;;;;;;5138298;27;20057;-81
2022/11/03 10:18:49;;;;;;;9.27;2.80;;;14.20;99.90;;;;;;5138341;27;20043;-80
2022/11/03 10:21:35;;;;;;;5.97;2.40;;;14.30;99.90;;;;;;5138316;27;20050;-82
2022/11/03 10:24:01;;;;;;;6.80;2.60;;;14.30;99.90;;;;;;5138223;27;20047;-82
2022/11/03 10:26:27;;;;;;;9.40;2.60;;;14.30;99.90;;;;;;5138356;27;20536;-83
2022/11/03 10:29:08;;;;;;;12.50;2.75;;;14.20;99.90;;;;;;5138277;27;20174;-80
2022/11/03 10:31:40;;;;;;;9.05;2.55;;;14.30;99.90;;;;;;5137807;27;20483;-80
2022/11/03 10:34:22;;;;;;;9.45;2.97;;;14.30;99.90;;;;;;5138074;27;20047;-79
2022/11/03 10:36:48;;;;;;;7.63;2.83;;;14.30;99.90;;;;;;5136601;27;20567;-79
2022/11/03 10:39:29;;;;;;;8.33;2.23;;;14.30;99.90;;;;;;5138082;27;20078;-79
2022/11/03 10:41:58;;;;;;;10.88;3.13;;;14.30;99.90;;;;;;5137911;27;20043;-81
2022/11/03 10:44:28;;;;;;;9.07;2.28;;;14.60;99.90;;;;;;5137775;27;20503;-80
2022/11/03 10:46:59;;;;;;;7.47;2.50;;;14.50;99.90;;;;;;5137786;27;20186;-79
2022/11/03 10:49:30;;;;;;;7.82;2.65;;;14.60;99.90;;;;;;5137882;27;20060;-79
2022/11/03 10:52:14;;;;;;;7.10;2.67;;;14.90;99.90;;;;;;5136807;27;20103;-78
2022/11/03 10:54:40;;;;;;;6.95;2.25;;;14.70;99.90;;;;;;5137998;27;20047;-79
2022/11/03 10:57:06;;;;;;;7.83;2.40;;;14.80;99.90;;;;;;5137757;27;20063;-78
2022/11/03 10:59:35;;;;;;;12.38;2.83;;;15.20;99.90;;;;;;5137540;27;20047;-81
2022/11/03 11:02:04;;;;;;;6.28;2.05;;;15.10;99.90;;;;;;5143810;27;20047;-79
2022/11/03 11:04:31;;;;;;;7.50;2.35;;;15.20;99.90;;;;;;5140730;27;20043;-80
2022/11/03 11:06:56;;;;;;;9.70;2.67;;;15.20;99.90;;;;;;5137626;27;20039;-78
2022/11/03 11:09:24;;;;;;;8.73;2.33;;;15.20;99.90;;;;;;5137600;27;20126;-76
2022/11/03 11:12:20;;;;;;;6.60;2.45;;;15.20;99.90;;;;;;5137850;27;20139;-78
2022/11/03 11:14:52;;;;;;;5.88;2.50;;;15.30;99.90;;;;;;5137334;27;20039;-78
2022/11/03 11:17:36;;;;;;;8.48;2.65;;;15.40;99.90;;;;;;5137330;27;20043;-77
2022/11/03 11:20:23;;;;;;;7.15;2.25;;;15.20;99.90;;;;;;5137337;27;20043;-76
2022/11/03 11:22:49;;;;;;;10.27;2.65;;;15.30;99.90;;;;;;5137222;27;20096;-76
2022/11/03 11:25:17;;;;;;;6.40;2.50;;;15.50;99.90;;;;;;5135926;27;20079;-79
2022/11/03 11:27:45;;;;;;;8.70;2.80;;;15.20;99.90;;;;;;5137045;27;20043;-76
2022/11/03 11:30:20;;;;;;;9.00;2.70;;;15.20;99.90;;;;;;5135562;27;20498;-76
2022/11/03 11:32:48;;;;;;;9.32;2.53;;;15.20;99.90;;;;;;5137166;27;20108;-77
2022/11/03 11:35:37;;;;;;;5.15;2.15;;;15.00;99.90;;;;;;5136982;27;20072;-84
2022/11/03 11:38:40;;;;;;;11.23;2.40;;;15.00;99.90;;;;;;5119060;27;20047;-76
2022/11/03 11:41:06;;;;;;;28.90;3.90;;;14.90;99.90;;;;;;5136840;27;20043;-81
2022/11/03 11:43:31;;;;;;;15.93;2.67;;;14.90;99.90;;;;;;5136732;27;20127;-84
2022/11/03 11:46:22;;;;;;;12.70;2.63;;;14.80;99.90;;;;;;5137008;27;20035;-81
2022/11/03 11:49:03;;;;;;;8.48;2.53;;;14.90;99.90;;;;;;5136856;27;20130;-80
2022/11/03 11:51:33;;;;;;;5.78;2.30;;;14.80;99.90;;;;;;5136806;27;20542;-80
2022/11/03 11:53:59;;;;;;;6.20;2.10;;;14.70;99.90;;;;;;5136698;27;20081;-81
2022/11/03 11:56:25;;;;;;;4.73;2.00;;;15.20;99.90;;;;;;5136822;27;20039;-75
2022/11/03 11:58:54;;;;;;;9.13;2.40;;;14.70;99.90;;;;;;5136503;27;20277;-82
2022/11/03 12:01:26;;;;;;;7.18;2.72;;;14.70;99.90;;;;;;5135621;27;20050;-79
2022/11/03 12:03:55;;;;;;;8.00;2.75;;;14.60;99.90;;;;;;5136289;27;20505;-80
2022/11/03 12:06:36;;;;;;;7.40;2.30;;;14.60;99.90;;;;;;5135956;27;20494;-80
2022/11/03 12:09:07;;;;;;;5.88;2.45;;;14.70;99.90;;;;;;5136396;27;20134;-80
2022/11/03 12:11:40;;;;;;;6.95;2.10;;;14.60;99.90;;;;;;5136239;27;20039;-80
2022/11/03 12:14:38;;;;;;;7.57;2.30;;;14.60;99.90;;;;;;5136163;27;20372;-80
2022/11/03 12:17:24;;;;;;;6.73;2.13;;;14.60;99.90;;;;;;5136261;27;20728;-80
2022/11/03 12:19:51;;;;;;;7.45;2.25;;;14.60;99.90;;;;;;5121488;27;20511;-82
2022/11/03 12:22:23;;;;;;;6.30;2.30;;;14.50;99.90;;;;;;5135026;27;20470;-80
2022/11/03 12:25:07;;;;;;;8.75;2.13;;;14.80;99.90;;;;;;5135923;27;20092;-79
2022/11/03 12:27:33;;;;;;;8.70;2.67;;;14.60;99.90;;;;;;5135794;27;20039;-80
2022/11/03 12:30:07;;;;;;;9.83;2.33;;;14.50;99.90;;;;;;5136247;27;20070;-81
2022/11/03 12:32:33;;;;;;;10.05;2.50;;;14.50;99.90;;;;;;5136040;27;20098;-80
2022/11/03 12:34:59;;;;;;;4.60;1.83;;;14.80;99.90;;;;;;5134764;27;20047;-80
2022/11/03 12:37:24;;;;;;;6.45;2.30;;;14.60;99.90;;;;;;5135553;27;20499;-80
2022/11/03 12:39:50;;;;;;;7.40;2.15;;;14.60;99.90;;;;;;5134564;27;20042;-80
2022/11/03 12:42:16;;;;;;;8.52;2.10;;;14.50;99.90;;;;;;5117140;27;20054;-81
2022/11/03 12:44:41;;;;;;;7.53;2.25;;;14.50;99.90;;;;;;5135745;27;20047;-81
2022/11/03 12:47:07;;;;;;;6.00;2.25;;;14.50;99.90;;;;;;5135825;27;20047;-82
2022/11/03 12:49:33;;;;;;;12.93;2.40;;;14.60;99.90;;;;;;5135672;27;20063;-81
2022/11/03 12:52:05;;;;;;;11.40;2.80;;;14.50;99.90;;;;;;5135761;27;20156;-81
2022/11/03 12:54:31;;;;;;;5.60;2.05;;;14.60;99.90;;;;;;5135081;27;20499;-80
2022/11/03 12:56:56;;;;;;;4.87;1.93;;;14.50;99.90;;;;;;5116652;27;20043;-81
2022/11/03 12:59:22;;;;;;;12.55;2.83;;;14.70;99.90;;;;;;5135554;27;20043;-82
2022/11/03 13:01:47;;;;;;;10.67;2.10;;;14.60;99.90;;;;;;5135516;27;20047;-84
2022/11/03 13:04:13;;;;;;;5.40;2.10;;;15.00;99.90;;;;;;5117382;27;20043;-86
2022/11/03 13:06:39;;;;;;;8.50;2.50;;;14.70;99.90;;;;;;5135232;27;20375;-81
2022/11/03 13:09:04;;;;;;;5.72;2.20;;;14.80;99.90;;;;;;5135256;27;20047;-82
2022/11/03 13:14:14;;;;;;;6.97;2.40;;;14.80;99.90;;;;;;5135174;27;20051;-77
2022/11/03 13:16:40;;;;;;;5.77;1.97;;;14.80;99.90;;;;;;5135021;27;20494;-77
2022/11/03 13:19:05;;;;;;;6.40;2.00;;;14.90;99.90;;;;;;5135028;27;20479;-80
2022/11/03 13:21:31;;;;;;;7.40;2.05;;;14.90;99.90;;;;;;5135070;27;20043;-79